Hauptseite
METAR-TAF:

METAR-TAF

Flughäfen :

William H. Morse State Airport

Bennington, Vermont, Vereinigte Staaten

Breite: 42-53-24N, Länge: 073-14-47W, Höhe: 252 m

Beobachtung

Neuester Wetterbericht von vor 50 Minuten, um 22:54 UTC
Wind 3 kt aus Südwest
Temperatur 18°C
Luftfeuchtigkeit 34%
Luftdruck 1011 hPa
Sichtweite: 16.1 km
Geschlossene Wolkendecke in der Höhe von 9500 ft

METAR: KDDH 142254Z AUTO 22003KT 10SM OVC095 18/02 A2984 RMK AO2 SLP106 T01780022

Zeit: 19:44 (23:44 UTC)


TAF: fehlend

Wetterbeobachtungen und Prognosen von mehr als 4000 Flughäfen (METAR und TAF Bericht).

Die verfügbaren Stationen werden durch gelbe und rote Markierungen auf der Karte dargestellt.

Führen Sie die Maus auf sie, um den Namen der Station zu sehen.

Darauf klicken, um die Beobachtung von Wetterbeobachtungen und Prognosen zu sehen.

Um die Karte zu ändern : klicken Sie auf den grünen Tasten mit einem schwarzen Kreuz Zum Vergrößern, auf den grünen Button mit einem Gedankenstrich zu verkleinern, oder auf die grünen Pfeile für benachbarte Karten.


METAR-TAF: